Time;durP1;ratioP1;P1;durP2;ratioP2;P2;SDS_P1;SDS_P2;PMS_P1;PMS_P2;Temp;Humidity;BMP_temperature;BMP_pressure;BME280_temperature;BME280_humidity;BME280_pressure;Samples;Min_cycle;Max_cycle;Signal;HPM_P1;HPM_P2
2023/05/07 00:02:11;;;;;;;10.50;6.83;;;12.60;99.90;;;12.71;64.15;95191.66;5036890;28;20464;-56
2023/05/07 00:04:38;;;;;;;10.67;6.03;;;12.60;99.90;;;12.69;64.64;95185.69;5038792;28;20459;-57
2023/05/07 00:07:06;;;;;;;9.87;7.67;;;12.60;99.90;;;12.68;64.57;95184.03;5035537;28;20476;-57
2023/05/07 00:09:33;;;;;;;7.13;6.43;;;12.60;99.90;;;12.65;64.56;95187.78;5038764;28;20686;-64
2023/05/07 00:12:00;;;;;;;8.37;6.70;;;12.50;99.90;;;12.63;64.36;95189.72;5037454;28;20456;-65
2023/05/07 00:14:28;;;;;;;8.70;6.53;;;12.50;99.90;;;12.59;64.65;95185.72;5040017;28;20479;-56
2023/05/07 00:16:56;;;;;;;11.70;6.90;;;12.50;99.90;;;12.55;64.07;95185.19;5033918;28;21227;-58
2023/05/07 00:19:24;;;;;;;7.33;5.50;;;12.50;99.90;;;12.49;64.21;95183.13;5035037;28;20464;-66
2023/05/07 00:21:53;;;;;;;11.53;7.10;;;12.40;99.90;;;12.43;64.53;95183.69;5037351;28;20461;-64
2023/05/07 00:24:20;;;;;;;10.77;5.70;;;12.30;99.90;;;12.43;64.25;95183.69;5043394;28;20463;-64
2023/05/07 00:26:47;;;;;;;14.70;7.10;;;12.30;99.90;;;12.43;64.61;95182.88;5040250;28;20453;-64
2023/05/07 00:29:15;;;;;;;13.90;5.87;;;12.30;99.90;;;12.41;64.44;95180.38;5042019;28;20897;-64
2023/05/07 00:31:42;;;;;;;7.47;5.70;;;12.30;99.90;;;12.39;64.78;95187.56;5040816;28;20447;-57
2023/05/07 00:34:10;;;;;;;10.37;5.87;;;12.30;99.90;;;12.38;64.46;95184.13;5038608;28;20912;-64
2023/05/07 00:36:38;;;;;;;7.40;6.70;;;12.30;99.90;;;12.36;64.65;95185.22;5032141;28;20957;-57
2023/05/07 00:39:05;;;;;;;6.63;5.37;;;12.20;99.90;;;12.36;64.97;95187.88;5039662;28;20488;-56
2023/05/07 00:41:32;;;;;;;16.67;6.17;;;12.20;99.90;;;12.35;64.89;95180.94;5040442;28;20461;-55
2023/05/07 00:44:02;;;;;;;10.63;6.77;;;12.20;99.90;;;12.34;64.87;95176.63;5041760;28;20538;-65
2023/05/07 00:46:30;;;;;;;8.07;6.30;;;12.20;99.90;;;12.33;65.47;95189.00;5037360;28;20460;-56
2023/05/07 00:48:57;;;;;;;8.27;7.50;;;12.20;99.90;;;12.32;65.16;95191.78;5039728;28;20472;-66
2023/05/07 00:51:27;;;;;;;10.87;6.40;;;12.20;99.90;;;12.29;65.11;95190.25;5037437;28;21011;-57
2023/05/07 00:53:54;;;;;;;7.37;6.07;;;12.20;99.90;;;12.26;65.31;95187.91;5040371;28;20472;-56
2023/05/07 00:56:22;;;;;;;6.77;6.03;;;12.20;99.90;;;12.24;64.84;95189.00;5033509;28;21306;-56
2023/05/07 00:58:49;;;;;;;9.17;5.47;;;12.20;99.90;;;12.22;65.39;95186.50;5040763;28;20554;-64
2023/05/07 01:01:16;;;;;;;8.53;6.10;;;12.10;99.90;;;12.20;65.25;95188.47;5039178;28;20448;-56
2023/05/07 01:03:44;;;;;;;12.93;5.30;;;12.10;99.90;;;12.19;65.01;95184.16;5038010;28;20480;-57
2023/05/07 01:06:12;;;;;;;12.53;6.13;;;12.10;99.90;;;12.17;65.07;95194.84;5037713;28;20468;-66
2023/05/07 01:08:41;;;;;;;7.90;6.63;;;12.10;99.90;;;12.16;64.81;95187.06;5037257;28;20463;-56
2023/05/07 01:11:08;;;;;;;8.60;5.90;;;12.00;99.90;;;12.14;65.03;95194.31;5038724;28;20556;-64
2023/05/07 01:13:35;;;;;;;8.93;6.83;;;12.00;99.90;;;12.12;65.34;95197.09;5036420;28;20468;-57
2023/05/07 01:16:03;;;;;;;6.43;5.83;;;12.00;99.90;;;12.11;65.07;95190.13;5037784;28;21349;-56
2023/05/07 01:18:30;;;;;;;11.03;5.47;;;12.00;99.90;;;12.09;65.21;95191.28;5037338;28;20479;-56
2023/05/07 01:20:58;;;;;;;6.93;6.13;;;12.00;99.90;;;12.08;65.29;95193.06;5035888;28;20448;-57
2023/05/07 01:23:27;;;;;;;6.37;5.77;;;12.00;99.90;;;12.05;65.22;95185.41;5037265;28;20471;-56
2023/05/07 01:25:55;;;;;;;8.50;6.50;;;11.90;99.90;;;12.02;65.38;95196.25;5037044;28;20464;-65
2023/05/07 01:28:22;;;;;;;6.47;5.87;;;11.90;99.90;;;12.00;65.09;95200.84;5036727;28;20963;-65
2023/05/07 01:30:53;;;;;;;8.23;5.60;;;11.90;99.90;;;11.95;65.44;95196.00;5036204;28;20518;-65
2023/05/07 01:33:22;;;;;;;5.47;4.97;;;11.90;99.90;;;11.93;65.10;95189.19;5034787;28;20527;-55
2023/05/07 01:35:52;;;;;;;9.37;5.80;;;11.80;99.90;;;11.89;65.37;95193.06;5036665;28;20460;-65
2023/05/07 01:38:20;;;;;;;10.07;5.60;;;11.80;99.90;;;11.86;65.38;95190.69;5036675;28;20481;-56
2023/05/07 01:40:48;;;;;;;8.23;6.97;;;11.80;99.90;;;11.83;65.09;95186.53;5035435;28;20547;-55
2023/05/07 01:43:16;;;;;;;13.67;6.33;;;11.70;99.90;;;11.79;65.42;95182.53;5037599;28;20476;-65
2023/05/07 01:45:44;;;;;;;8.97;5.30;;;11.70;99.90;;;11.75;65.64;95184.59;5033963;28;20455;-56
2023/05/07 01:48:12;;;;;;;9.70;5.37;;;11.70;99.90;;;11.71;65.89;95177.09;5036250;28;21019;-64
2023/05/07 01:50:40;;;;;;;5.73;5.13;;;11.60;99.90;;;11.69;65.61;95182.50;5028339;28;20498;-56
2023/05/07 01:53:07;;;;;;;8.90;6.37;;;11.60;99.90;;;11.67;65.84;95176.56;5035255;28;20480;-57
2023/05/07 01:55:36;;;;;;;7.10;5.90;;;11.60;99.90;;;11.68;65.74;95182.66;5034706;28;20495;-56
2023/05/07 01:58:05;;;;;;;10.30;5.87;;;11.60;99.90;;;11.64;65.88;95182.94;5035499;28;20467;-57
2023/05/07 02:00:32;;;;;;;8.23;6.00;;;11.50;99.90;;;11.63;65.97;95177.81;5035258;28;20456;-56
2023/05/07 02:03:00;;;;;;;16.00;7.37;;;11.50;99.90;;;11.60;66.14;95171.03;5031112;28;20534;-67
2023/05/07 02:05:27;;;;;;;10.97;6.63;;;11.50;99.90;;;11.60;66.33;95170.16;5034677;28;20515;-65
2023/05/07 02:07:54;;;;;;;14.10;6.17;;;11.50;99.90;;;11.57;66.63;95162.53;5035579;28;20573;-65
2023/05/07 02:10:22;;;;;;;8.10;5.90;;;11.50;99.90;;;11.54;66.55;95160.19;5032342;28;20488;-56
2023/05/07 02:12:49;;;;;;;7.30;6.17;;;11.50;99.90;;;11.52;66.25;95156.88;5035161;28;20464;-64
2023/05/07 02:15:18;;;;;;;8.13;6.10;;;11.40;99.90;;;11.48;65.53;95162.41;5032100;28;20460;-64
2023/05/07 02:17:59;;;;;;;10.07;6.00;;;11.40;99.90;;;11.45;66.80;95157.41;5030841;28;21055;-58
2023/05/07 02:20:27;;;;;;;8.57;7.40;;;11.40;99.90;;;11.41;66.26;95161.28;5032521;28;20527;-57
2023/05/07 02:22:54;;;;;;;11.53;7.30;;;11.30;99.90;;;11.38;66.08;95155.47;5034017;28;20468;-64
2023/05/07 02:25:21;;;;;;;6.50;5.73;;;11.30;99.90;;;11.36;66.41;95158.25;5034681;28;20478;-65
2023/05/07 02:27:49;;;;;;;8.00;6.60;;;11.30;99.90;;;11.34;66.21;95162.81;5030225;28;20483;-57
2023/05/07 02:30:18;;;;;;;13.40;6.70;;;11.30;99.90;;;11.29;66.19;95163.25;5031005;28;20500;-64
2023/05/07 02:32:45;;;;;;;5.87;5.30;;;11.20;99.90;;;11.27;66.28;95161.69;5032104;28;21224;-65
2023/05/07 02:35:12;;;;;;;10.37;6.87;;;11.20;99.90;;;11.25;66.43;95166.28;5030718;28;20451;-64
2023/05/07 02:37:40;;;;;;;6.17;5.57;;;11.20;99.90;;;11.23;66.38;95162.94;5036505;28;20484;-64
2023/05/07 02:40:09;;;;;;;8.20;6.67;;;11.20;99.90;;;11.21;66.54;95159.63;5032286;28;20472;-57
2023/05/07 02:42:36;;;;;;;7.90;6.70;;;11.10;99.90;;;11.19;66.60;95156.28;5034660;28;20503;-65
2023/05/07 02:45:03;;;;;;;7.73;5.20;;;11.10;99.90;;;11.17;66.32;95158.22;5031560;28;20480;-57
2023/05/07 02:47:32;;;;;;;8.07;5.87;;;11.10;99.90;;;11.15;66.49;95160.16;5033735;28;20893;-57
2023/05/07 02:49:59;;;;;;;8.30;5.43;;;11.10;99.90;;;11.13;66.53;95173.47;5035790;28;20492;-65
2023/05/07 02:52:27;;;;;;;7.93;6.60;;;11.00;99.90;;;11.11;66.43;95168.31;5029143;28;20727;-57
2023/05/07 02:54:54;;;;;;;14.93;7.13;;;11.00;99.90;;;11.07;66.29;95164.28;5034704;28;20507;-58
2023/05/07 02:57:21;;;;;;;6.93;5.97;;;11.00;99.90;;;11.06;66.42;95164.44;5037901;28;20468;-55
2023/05/07 02:59:49;;;;;;;11.43;6.60;;;11.00;99.90;;;11.03;66.80;95165.56;5035595;28;20449;-57
2023/05/07 03:02:16;;;;;;;9.60;6.43;;;11.00;99.90;;;11.01;66.47;95174.53;5035393;28;20488;-57
2023/05/07 03:04:45;;;;;;;8.80;6.07;;;11.00;99.90;;;10.99;66.74;95172.03;5033058;28;20551;-56
2023/05/07 03:07:12;;;;;;;6.73;5.83;;;10.90;99.90;;;10.98;66.76;95182.72;5036030;28;20471;-66
2023/05/07 03:09:39;;;;;;;7.10;6.40;;;10.90;99.90;;;10.93;66.74;95173.41;5035434;28;20456;-65
2023/05/07 03:12:07;;;;;;;9.70;5.90;;;10.90;99.90;;;10.92;66.59;95178.81;5036085;28;21240;-65
2023/05/07 03:14:34;;;;;;;9.20;5.60;;;10.90;99.90;;;10.88;66.78;95175.63;5031733;28;20448;-65
2023/05/07 03:17:02;;;;;;;8.30;6.03;;;10.80;99.90;;;10.87;66.78;95178.38;5033408;28;20480;-65
2023/05/07 03:19:30;;;;;;;7.00;5.93;;;10.80;99.90;;;10.84;66.86;95179.47;5034307;28;20486;-55
2023/05/07 03:21:59;;;;;;;7.67;6.10;;;10.80;99.90;;;10.83;67.05;95193.63;5039848;28;20471;-56
2023/05/07 03:24:26;;;;;;;12.80;6.67;;;10.70;99.90;;;10.80;66.98;95190.41;5039437;28;20451;-64
2023/05/07 03:26:53;;;;;;;10.00;7.17;;;10.70;99.90;;;10.78;67.35;95201.06;5038314;28;20857;-65
2023/05/07 03:29:20;;;;;;;10.43;6.80;;;10.70;99.90;;;10.76;67.97;95188.03;5039177;28;20451;-65
2023/05/07 03:31:48;;;;;;;7.90;5.97;;;10.70;99.90;;;10.77;67.33;95200.22;5038549;28;20494;-56
2023/05/07 03:34:16;;;;;;;15.27;5.80;;;10.70;99.90;;;10.78;67.41;95190.53;5038652;28;20460;-57
2023/05/07 03:36:44;;;;;;;10.20;6.30;;;10.70;99.90;;;10.79;67.72;95194.84;5038800;28;20473;-56
2023/05/07 03:39:13;;;;;;;6.30;5.70;;;10.70;99.90;;;10.80;67.62;95200.91;5037515;28;20834;-56
2023/05/07 03:41:40;;;;;;;9.60;6.80;;;10.70;99.90;;;10.81;67.81;95206.06;5037653;28;20975;-66
2023/05/07 03:44:07;;;;;;;6.77;5.70;;;10.70;99.90;;;10.82;67.73;95196.38;5037238;28;20961;-57
2023/05/07 03:46:35;;;;;;;8.60;7.10;;;10.80;99.90;;;10.83;67.79;95196.25;5035970;28;20479;-64
2023/05/07 03:49:02;;;;;;;8.07;6.33;;;10.80;99.90;;;10.85;67.57;95201.38;5039394;28;20471;-57
2023/05/07 03:51:30;;;;;;;8.37;6.50;;;10.80;99.90;;;10.87;67.97;95210.78;5032754;28;20932;-56
2023/05/07 03:53:57;;;;;;;6.73;5.90;;;10.80;99.90;;;10.89;67.74;95210.66;5036725;28;20912;-56
2023/05/07 03:56:27;;;;;;;9.03;5.93;;;10.80;99.90;;;10.91;67.90;95206.09;5035068;28;20871;-64
2023/05/07 03:58:55;;;;;;;14.90;7.80;;;10.80;99.90;;;10.93;67.92;95215.50;5041515;28;20473;-56
2023/05/07 04:01:22;;;;;;;13.83;6.30;;;10.90;99.90;;;10.98;67.94;95217.75;5035304;28;20449;-56
2023/05/07 04:03:49;;;;;;;8.60;6.77;;;10.90;99.90;;;10.99;68.30;95211.53;5038219;28;20533;-58
2023/05/07 04:06:17;;;;;;;6.77;6.17;;;10.90;99.90;;;11.04;67.61;95216.38;5038956;28;20456;-57
2023/05/07 04:08:44;;;;;;;13.20;6.83;;;10.90;99.90;;;11.06;67.97;95227.59;5036639;28;20575;-58
2023/05/07 04:11:12;;;;;;;8.80;6.40;;;11.00;99.90;;;11.09;67.73;95222.91;5038137;28;20491;-55
2023/05/07 04:13:40;;;;;;;9.60;6.80;;;11.00;99.90;;;11.15;67.92;95225.97;5033487;28;20477;-64
2023/05/07 04:16:08;;;;;;;7.20;6.50;;;11.10;99.90;;;11.19;68.16;95232.66;5036949;28;20529;-64
2023/05/07 04:18:35;;;;;;;12.20;6.93;;;11.10;99.90;;;11.21;67.96;95238.59;5035440;28;20468;-57
2023/05/07 04:21:02;;;;;;;6.97;5.80;;;11.10;99.90;;;11.26;67.67;95244.28;5037411;28;20467;-56
2023/05/07 04:23:30;;;;;;;11.43;6.80;;;11.10;99.90;;;11.30;67.72;95237.78;5037840;28;21066;-65
2023/05/07 04:25:57;;;;;;;9.37;7.10;;;11.20;99.90;;;11.34;67.84;95243.63;5037726;28;20510;-64
2023/05/07 04:28:24;;;;;;;18.73;6.90;;;11.20;99.90;;;11.37;67.46;95244.19;5038369;28;20472;-65
2023/05/07 04:30:53;;;;;;;7.73;6.83;;;11.30;99.90;;;11.42;67.37;95252.50;5037037;28;20498;-65
2023/05/07 04:33:20;;;;;;;12.70;6.17;;;11.30;99.90;;;11.46;67.56;95253.91;5038158;28;20472;-58
2023/05/07 04:35:47;;;;;;;11.20;6.87;;;11.30;99.90;;;11.52;67.19;95255.16;5038223;28;20467;-57
2023/05/07 04:38:15;;;;;;;8.40;6.90;;;11.40;99.90;;;11.57;67.18;95255.59;5036914;28;20477;-57
2023/05/07 04:40:42;;;;;;;8.43;6.80;;;11.50;99.90;;;11.64;67.13;95266.41;5039120;28;20836;-56
2023/05/07 04:43:09;;;;;;;7.30;6.60;;;11.50;99.90;;;11.70;67.10;95263.25;5036690;28;20996;-56
2023/05/07 04:45:37;;;;;;;8.03;6.47;;;11.60;99.90;;;11.78;67.09;95258.09;5038853;28;20460;-55
2023/05/07 04:48:07;;;;;;;6.47;5.83;;;11.70;99.90;;;11.85;66.86;95263.69;5036422;28;20563;-57
2023/05/07 04:50:34;;;;;;;8.23;6.17;;;11.70;99.90;;;11.90;66.91;95261.44;5037821;28;20453;-65
2023/05/07 04:53:02;;;;;;;8.30;7.33;;;11.80;99.90;;;11.98;66.70;95260.78;5034553;28;20495;-66
2023/05/07 04:55:30;;;;;;;8.90;6.03;;;11.80;99.90;;;12.02;66.87;95257.75;5035227;28;20453;-65
2023/05/07 04:57:57;;;;;;;11.60;7.70;;;11.90;99.90;;;12.08;66.72;95252.88;5039136;28;20481;-65
2023/05/07 05:00:25;;;;;;;9.30;7.40;;;12.00;99.90;;;12.14;66.33;95257.59;5035465;28;20453;-57
2023/05/07 05:02:52;;;;;;;12.93;6.80;;;12.00;99.90;;;12.19;66.27;95250.94;5031563;28;20854;-65
2023/05/07 05:05:21;;;;;;;10.20;7.40;;;12.10;99.90;;;12.28;66.29;95261.59;5035577;28;20444;-65
2023/05/07 05:07:48;;;;;;;12.47;7.30;;;12.20;99.90;;;12.35;66.37;95260.06;5031990;28;20465;-65
2023/05/07 05:10:16;;;;;;;9.43;7.97;;;12.20;99.90;;;12.41;66.07;95264.78;5037227;28;20447;-58
2023/05/07 05:12:43;;;;;;;9.37;7.00;;;12.30;99.90;;;12.47;66.30;95266.84;5035240;28;20579;-64
2023/05/07 05:15:12;;;;;;;8.97;7.03;;;12.30;99.90;;;12.55;66.15;95263.50;5037798;28;20453;-64
2023/05/07 05:17:39;;;;;;;9.87;7.17;;;12.40;99.90;;;12.66;65.95;95254.59;5038979;28;20475;-65
2023/05/07 05:20:09;;;;;;;9.90;7.83;;;12.50;99.90;;;12.78;66.39;95255.25;5033013;28;20459;-65
2023/05/07 05:22:38;;;;;;;13.10;7.20;;;12.60;99.90;;;12.91;66.28;95253.13;5035466;28;20481;-57
2023/05/07 05:25:06;;;;;;;17.33;9.33;;;12.70;99.90;;;13.09;65.81;95253.19;5037238;28;20861;-56
2023/05/07 05:27:33;;;;;;;13.50;8.47;;;12.90;99.90;;;13.29;65.43;95256.56;5038139;28;20529;-65
2023/05/07 05:30:01;;;;;;;20.33;10.73;;;13.10;99.90;;;13.53;65.14;95260.50;5039065;28;20467;-56
2023/05/07 05:32:28;;;;;;;10.07;8.00;;;13.30;99.90;;;13.79;64.93;95260.63;5037738;28;20579;-64
2023/05/07 05:34:55;;;;;;;16.47;8.00;;;13.50;99.90;;;14.04;64.33;95253.75;5039844;28;20879;-57
2023/05/07 05:37:22;;;;;;;11.63;7.60;;;13.70;99.90;;;14.30;64.06;95258.28;5039364;28;20473;-58
2023/05/07 05:39:51;;;;;;;11.20;8.20;;;14.00;99.90;;;14.57;63.39;95259.94;5033167;28;20483;-65
2023/05/07 05:42:18;;;;;;;16.20;7.40;;;14.20;99.90;;;14.85;63.02;95263.28;5035572;28;20526;-56
2023/05/07 05:44:45;;;;;;;8.57;7.70;;;14.50;99.90;;;15.15;62.36;95263.81;5036902;28;20464;-58
2023/05/07 05:47:13;;;;;;;10.30;6.93;;;14.80;99.90;;;15.45;61.74;95260.78;5037006;28;20498;-57
2023/05/07 05:49:40;;;;;;;10.83;7.70;;;15.00;99.90;;;15.74;61.20;95257.72;5037597;28;20457;-64
2023/05/07 05:52:07;;;;;;;9.03;8.13;;;15.30;99.90;;;15.99;60.74;95258.63;5038992;28;20599;-65
2023/05/07 05:54:35;;;;;;;9.00;8.00;;;15.60;99.90;;;16.24;60.10;95262.13;5030176;28;21539;-66
2023/05/07 05:57:04;;;;;;;21.43;8.23;;;15.90;99.90;;;16.51;59.80;95256.66;5032273;28;20515;-57
2023/05/07 05:59:31;;;;;;;10.27;8.33;;;16.10;99.60;;;16.77;59.12;95265.25;5036659;28;20460;-65
2023/05/07 06:01:58;;;;;;;11.33;8.53;;;16.40;99.20;;;16.99;58.22;95258.44;5030058;28;20843;-65
2023/05/07 06:04:25;;;;;;;15.63;8.07;;;16.60;98.50;;;17.23;58.04;95258.53;5034752;28;20820;-65
2023/05/07 06:06:53;;;;;;;17.77;8.63;;;16.80;98.20;;;17.47;57.57;95254.94;5039293;28;20944;-58
2023/05/07 06:09:20;;;;;;;14.93;9.50;;;17.00;97.80;;;17.72;56.56;95255.66;5037515;28;20448;-65
2023/05/07 06:11:47;;;;;;;10.43;8.00;;;17.30;97.60;;;17.94;56.19;95255.91;5040108;28;20597;-66
2023/05/07 06:14:16;;;;;;;11.20;9.40;;;17.50;97.10;;;18.13;56.26;95254.63;5036482;28;20940;-66
2023/05/07 06:16:43;;;;;;;9.43;8.53;;;17.70;96.70;;;18.28;55.16;95253.69;5037370;28;20451;-67
2023/05/07 06:19:10;;;;;;;16.07;9.13;;;17.90;96.10;;;18.43;55.11;95255.56;5034309;28;20452;-59
2023/05/07 06:21:38;;;;;;;13.40;9.10;;;18.00;95.90;;;18.63;55.19;95255.88;5039487;28;20456;-66
2023/05/07 06:24:06;;;;;;;13.20;9.03;;;18.20;95.70;;;18.85;54.71;95258.72;5036785;28;20564;-64
2023/05/07 06:26:33;;;;;;;10.37;8.23;;;18.40;95.30;;;19.06;54.29;95252.69;5037706;28;20518;-58
2023/05/07 06:29:01;;;;;;;9.60;8.47;;;18.60;95.00;;;19.27;53.86;95247.44;5033962;28;20820;-57
2023/05/07 06:31:31;;;;;;;10.73;8.20;;;18.80;94.70;;;19.51;53.46;95238.31;5035808;28;20488;-67
2023/05/07 06:33:59;;;;;;;10.83;8.93;;;19.00;94.30;;;19.76;52.57;95237.16;5039407;28;20539;-67
2023/05/07 06:36:27;;;;;;;10.17;9.17;;;19.30;93.80;;;19.96;52.09;95234.75;5036855;28;20483;-58
2023/05/07 06:38:54;;;;;;;18.27;10.10;;;19.50;93.00;;;20.09;51.53;95228.72;5038539;28;20479;-65
2023/05/07 06:41:21;;;;;;;10.60;8.43;;;19.60;92.50;;;20.08;51.31;95230.56;5038153;28;20467;-57
2023/05/07 06:43:49;;;;;;;12.50;9.30;;;19.70;92.00;;;19.97;51.34;95220.38;5038838;28;20487;-56
2023/05/07 06:46:16;;;;;;;30.13;9.90;;;19.60;91.30;;;19.98;51.07;95224.69;5030736;28;20468;-69
2023/05/07 06:48:45;;;;;;;11.10;8.93;;;19.60;91.10;;;19.96;51.00;95214.22;5031844;28;20481;-58
2023/05/07 06:51:12;;;;;;;20.03;8.80;;;19.60;90.90;;;19.91;50.72;95221.97;5032407;28;20448;-71
2023/05/07 06:53:40;;;;;;;14.70;8.73;;;19.50;90.60;;;19.95;50.81;95217.88;5040186;28;20549;-58
2023/05/07 06:56:07;;;;;;;12.17;9.43;;;19.50;90.70;;;20.09;51.13;95212.69;5039439;28;20971;-58
2023/05/07 06:58:35;;;;;;;11.10;9.27;;;19.60;90.90;;;20.29;51.06;95223.56;5040128;28;20802;-56
2023/05/07 07:01:02;;;;;;;10.37;9.27;;;19.80;91.00;;;20.45;50.30;95223.31;5039290;28;20534;-72
2023/05/07 07:03:29;;;;;;;16.00;8.27;;;20.00;90.30;;;20.56;50.16;95222.78;5037346;28;20480;-74
2023/05/07 07:05:58;;;;;;;11.90;8.43;;;20.10;89.80;;;20.71;49.91;95221.88;5039384;28;20447;-72
2023/05/07 07:08:25;;;;;;;11.87;9.50;;;20.20;89.50;;;20.87;49.25;95213.56;5038658;28;20476;-57
2023/05/07 07:10:52;;;;;;;11.73;8.70;;;20.40;88.40;;;20.98;49.09;95214.88;5037193;28;21204;-69
2023/05/07 07:13:20;;;;;;;12.10;9.40;;;20.50;87.80;;;20.98;48.98;95206.84;5039816;28;21112;-71
2023/05/07 07:15:47;;;;;;;15.03;8.97;;;20.50;87.00;;;21.07;49.13;95210.22;5036190;28;20456;-71
2023/05/07 07:18:15;;;;;;;10.13;8.97;;;20.60;86.80;;;21.28;48.90;95212.78;5038013;28;20473;-69
2023/05/07 07:20:44;;;;;;;12.17;8.53;;;20.80;87.00;;;21.59;48.08;95214.19;5039739;28;20883;-69
2023/05/07 07:23:12;;;;;;;10.10;8.67;;;21.00;86.10;;;21.93;48.00;95214.31;5033992;28;20475;-57
2023/05/07 07:25:40;;;;;;;11.07;8.20;;;21.30;84.90;;;22.27;47.20;95213.34;5040176;28;20991;-66
2023/05/07 07:28:07;;;;;;;11.13;8.90;;;21.70;84.80;;;22.60;47.13;95204.50;5031506;28;20499;-67
2023/05/07 07:30:34;;;;;;;12.40;7.93;;;22.00;83.60;;;22.91;46.50;95211.94;5038103;28;20509;-70
2023/05/07 07:33:02;;;;;;;15.63;8.83;;;22.30;82.20;;;23.19;46.46;95213.56;5035320;28;20519;-58
2023/05/07 07:35:30;;;;;;;8.63;7.83;;;22.60;81.40;;;23.46;45.74;95213.47;5038361;28;20455;-57
2023/05/07 07:37:57;;;;;;;9.37;7.97;;;22.90;79.00;;;23.73;45.45;95216.88;5036830;28;20477;-68
2023/05/07 07:40:26;;;;;;;10.20;8.80;;;23.20;78.20;;;24.01;44.45;95215.72;5040441;28;20452;-66
2023/05/07 07:42:54;;;;;;;9.50;7.27;;;23.40;76.90;;;24.10;43.49;95209.06;5036838;28;20473;-57
2023/05/07 07:45:21;;;;;;;9.20;6.60;;;23.60;74.50;;;24.24;43.80;95220.56;5038205;28;20468;-69
2023/05/07 07:47:49;;;;;;;14.33;7.73;;;23.70;73.50;;;24.42;43.27;95221.69;5039198;28;21065;-58
2023/05/07 07:50:16;;;;;;;10.20;7.17;;;23.90;73.20;;;24.45;43.31;95221.25;5040134;28;20475;-59
2023/05/07 07:52:43;;;;;;;13.43;7.40;;;23.90;72.00;;;24.39;42.59;95219.44;5035122;28;20491;-59
2023/05/07 07:55:11;;;;;;;8.93;6.80;;;23.90;70.80;;;24.46;43.11;95217.50;5035895;28;20518;-68
2023/05/07 07:57:40;;;;;;;11.07;6.93;;;23.90;71.50;;;24.68;42.67;95212.63;5037102;28;20472;-60
2023/05/07 08:00:09;;;;;;;11.87;8.87;;;24.10;70.70;;;24.94;42.24;95211.59;5037683;28;20459;-57
2023/05/07 08:02:37;;;;;;;7.73;7.03;;;24.40;70.00;;;25.18;41.86;95203.69;5037429;28;20562;-70
2023/05/07 08:05:05;;;;;;;6.40;5.80;;;24.60;70.20;;;25.51;42.38;95205.22;5038443;28;20460;-71
2023/05/07 08:07:32;;;;;;;10.77;6.70;;;24.90;70.30;;;25.87;41.86;95212.44;5037378;28;20477;-68
2023/05/07 08:09:59;;;;;;;14.27;7.33;;;25.20;69.40;;;26.21;41.40;95203.91;5038427;28;20448;-71
2023/05/07 08:12:26;;;;;;;7.07;6.37;;;25.60;68.50;;;26.43;40.83;95209.59;5039099;28;20575;-58
2023/05/07 08:14:55;;;;;;;6.57;5.93;;;25.90;66.50;;;26.66;40.77;95208.84;5034052;28;20460;-60
2023/05/07 08:17:22;;;;;;;10.80;6.93;;;26.10;66.10;;;26.97;40.14;95209.59;5038629;28;20476;-71
2023/05/07 08:19:50;;;;;;;7.33;6.20;;;26.40;65.30;;;27.28;39.40;95200.31;5035256;28;20550;-66
2023/05/07 08:22:18;;;;;;;11.23;6.70;;;26.70;63.80;;;27.55;39.36;95208.75;5037717;28;20522;-57
2023/05/07 08:24:45;;;;;;;7.23;6.00;;;27.00;62.30;;;27.66;38.01;95198.97;5036045;28;20486;-58
2023/05/07 08:27:13;;;;;;;8.93;6.43;;;27.20;60.00;;;27.70;37.84;95204.72;5035551;28;20499;-67
2023/05/07 08:29:40;;;;;;;5.77;5.27;;;27.20;59.20;;;27.65;38.02;95194.66;5036568;28;20939;-58
2023/05/07 08:32:09;;;;;;;6.87;5.43;;;27.20;59.40;;;27.80;37.89;95191.41;5036639;28;20475;-58
2023/05/07 08:34:36;;;;;;;10.83;5.37;;;27.30;58.80;;;27.98;37.60;95190.44;5037633;28;20482;-58
2023/05/07 08:37:03;;;;;;;7.57;5.50;;;27.40;58.60;;;28.16;37.33;95194.81;5038352;28;20537;-56
2023/05/07 08:39:31;;;;;;;6.50;5.57;;;27.60;58.00;;;28.36;36.07;95188.94;5036462;28;20478;-67
2023/05/07 08:41:58;;;;;;;7.23;4.63;;;27.80;57.00;;;28.57;36.17;95186.63;5039128;28;20443;-68
2023/05/07 08:44:26;;;;;;;11.60;5.00;;;28.00;56.30;;;28.54;35.14;95189.81;5035882;28;20456;-57
2023/05/07 08:46:54;;;;;;;7.43;3.67;;;28.10;54.40;;;28.43;35.53;95178.81;5039221;28;20489;-57
2023/05/07 08:49:23;;;;;;;5.20;3.63;;;28.00;54.90;;;28.57;35.25;95186.63;5036326;28;20462;-68
2023/05/07 08:51:50;;;;;;;6.87;4.80;;;28.00;54.90;;;28.79;35.49;95182.13;5035406;28;20963;-68
2023/05/07 08:54:17;;;;;;;4.90;4.50;;;28.20;54.40;;;29.05;34.07;95178.97;5038479;28;20495;-58
2023/05/07 08:56:45;;;;;;;8.13;4.07;;;28.50;53.60;;;29.26;34.23;95175.50;5035056;28;20443;-66
2023/05/07 08:59:12;;;;;;;7.10;4.60;;;28.70;53.30;;;29.39;33.89;95168.09;5037008;28;20454;-59
2023/05/07 09:01:39;;;;;;;6.20;4.60;;;28.80;52.90;;;29.48;33.55;95177.41;5037775;28;20906;-70
2023/05/07 09:04:07;;;;;;;5.53;4.50;;;28.90;51.50;;;29.61;34.17;95174.34;5037168;28;20582;-56
2023/05/07 09:06:37;;;;;;;9.20;4.50;;;29.10;52.00;;;29.77;33.84;95174.53;5035105;28;20920;-58
2023/05/07 09:09:05;;;;;;;8.27;4.43;;;29.20;51.70;;;29.92;33.75;95161.16;5036569;28;20494;-71
2023/05/07 09:11:32;;;;;;;5.60;4.37;;;29.40;50.40;;;30.00;33.87;95159.91;5036721;28;20487;-58
2023/05/07 09:14:01;;;;;;;5.10;4.70;;;29.50;50.50;;;29.84;32.59;95153.50;5035621;28;20491;-59
2023/05/07 09:16:31;;;;;;;8.50;4.93;;;29.40;50.40;;;29.58;32.95;95155.06;5038063;28;20455;-57
2023/05/07 09:19:00;;;;;;;6.53;4.97;;;29.20;50.10;;;29.28;33.43;95153.56;5040777;28;20552;-72
2023/05/07 09:21:27;;;;;;;6.53;5.93;;;28.90;49.70;;;29.01;33.19;95150.75;5033348;28;20587;-74
2023/05/07 09:23:56;;;;;;;5.90;4.93;;;28.60;49.90;;;28.82;32.63;95152.91;5035423;28;21008;-70
2023/05/07 09:26:24;;;;;;;6.27;5.67;;;28.40;49.80;;;28.60;33.17;95157.19;5035895;28;21042;-69
2023/05/07 09:28:51;;;;;;;4.80;4.43;;;28.10;49.60;;;28.45;33.16;95154.19;5036504;28;20567;-59
2023/05/07 09:31:18;;;;;;;9.13;4.73;;;28.00;49.50;;;28.36;32.99;95147.56;5030264;28;20452;-58
2023/05/07 09:33:46;;;;;;;3.90;3.43;;;27.90;48.50;;;28.24;33.30;95145.75;5036842;28;20545;-72
2023/05/07 09:36:13;;;;;;;8.60;4.37;;;27.80;49.20;;;28.25;32.53;95144.66;5033385;28;20534;-71
2023/05/07 09:38:40;;;;;;;5.40;4.10;;;27.70;48.30;;;28.18;32.25;95137.78;5037820;28;20486;-56
2023/05/07 09:41:10;;;;;;;8.97;4.63;;;27.70;47.50;;;28.14;32.54;95140.16;5033568;28;20816;-58
2023/05/07 09:43:38;;;;;;;4.27;3.80;;;27.60;49.30;;;28.18;32.60;95130.50;5034595;28;20479;-57
2023/05/07 09:46:09;;;;;;;8.63;4.33;;;27.70;49.30;;;28.23;32.54;95133.28;5035830;28;20456;-58
2023/05/07 09:48:38;;;;;;;6.80;4.50;;;27.70;48.10;;;28.23;33.03;95129.75;5030722;28;20484;-56
2023/05/07 09:51:12;;;;;;;3.80;3.50;;;27.80;49.00;;;28.39;33.25;95120.00;5034603;28;20528;-60
2023/05/07 09:53:40;;;;;;;3.30;3.10;;;27.80;49.00;;;28.64;32.86;95119.63;5036201;28;20597;-57
2023/05/07 09:56:08;;;;;;;7.43;3.67;;;28.10;48.70;;;28.84;31.91;95119.09;5030275;28;20447;-71
2023/05/07 09:58:37;;;;;;;15.90;3.87;;;28.20;48.20;;;29.04;32.02;95118.56;5033862;28;20748;-58
2023/05/07 10:01:05;;;;;;;5.67;3.20;;;28.40;48.40;;;29.21;31.44;95118.56;5033786;28;20454;-73
2023/05/07 10:03:33;;;;;;;6.57;3.87;;;28.60;47.70;;;29.32;31.57;95120.31;5037313;28;20508;-58
2023/05/07 10:06:00;;;;;;;3.30;3.00;;;28.70;46.20;;;29.36;30.38;95119.81;5037401;28;20552;-71
2023/05/07 10:08:27;;;;;;;3.87;3.10;;;28.80;46.30;;;29.31;29.94;95118.69;5035082;28;20472;-71
2023/05/07 10:10:54;;;;;;;3.63;3.33;;;28.80;45.10;;;29.33;31.02;95111.13;5036499;28;20844;-71
2023/05/07 10:13:23;;;;;;;3.57;3.27;;;28.80;45.30;;;29.37;29.58;95118.75;5034518;28;20511;-57
2023/05/07 10:15:50;;;;;;;2.53;2.40;;;28.80;44.40;;;29.41;30.61;95117.19;5035153;28;20460;-71
2023/05/07 10:18:18;;;;;;;6.50;3.20;;;28.90;44.40;;;29.51;30.81;95114.56;5036388;28;20575;-71